sensor_id;sensor_type;location;lat;lon;timestamp;temperature;humidity
60868;DHT22;46702;48.370;10.794;2023-04-08T00:00:18;5.50;99.90
60868;DHT22;46702;48.370;10.794;2023-04-08T00:02:44;5.40;99.90
60868;DHT22;46702;48.370;10.794;2023-04-08T00:05:10;5.40;99.90
60868;DHT22;46702;48.370;10.794;2023-04-08T00:07:36;5.40;99.90
60868;DHT22;46702;48.370;10.794;2023-04-08T00:10:02;5.30;99.90
60868;DHT22;46702;48.370;10.794;2023-04-08T00:12:27;5.30;99.90
60868;DHT22;46702;48.370;10.794;2023-04-08T00:14:53;5.40;99.90
60868;DHT22;46702;48.370;10.794;2023-04-08T00:17:19;5.40;99.90
60868;DHT22;46702;48.370;10.794;2023-04-08T00:19:44;5.40;99.90
60868;DHT22;46702;48.370;10.794;2023-04-08T00:22:10;5.40;99.90
60868;DHT22;46702;48.370;10.794;2023-04-08T00:24:36;5.40;99.90
60868;DHT22;46702;48.370;10.794;2023-04-08T00:27:02;5.50;99.90
60868;DHT22;46702;48.370;10.794;2023-04-08T00:29:28;5.50;99.90
60868;DHT22;46702;48.370;10.794;2023-04-08T00:31:54;5.50;99.90
60868;DHT22;46702;48.370;10.794;2023-04-08T00:34:19;5.50;99.90
60868;DHT22;46702;48.370;10.794;2023-04-08T00:36:45;5.60;99.90
60868;DHT22;46702;48.370;10.794;2023-04-08T00:39:12;5.30;99.90
60868;DHT22;46702;48.370;10.794;2023-04-08T00:41:38;5.30;99.90
60868;DHT22;46702;48.370;10.794;2023-04-08T00:44:04;5.20;99.90
60868;DHT22;46702;48.370;10.794;2023-04-08T00:46:30;5.30;99.90
60868;DHT22;46702;48.370;10.794;2023-04-08T00:49:00;5.30;99.90
60868;DHT22;46702;48.370;10.794;2023-04-08T00:51:28;5.30;99.90
60868;DHT22;46702;48.370;10.794;2023-04-08T00:53:54;5.30;99.90
60868;DHT22;46702;48.370;10.794;2023-04-08T00:56:21;5.30;99.90
60868;DHT22;46702;48.370;10.794;2023-04-08T00:58:47;5.30;99.90
60868;DHT22;46702;48.370;10.794;2023-04-08T01:01:18;5.10;99.90
60868;DHT22;46702;48.370;10.794;2023-04-08T01:04:01;5.10;99.90
60868;DHT22;46702;48.370;10.794;2023-04-08T01:06:39;5.10;99.90
60868;DHT22;46702;48.370;10.794;2023-04-08T01:09:08;5.00;99.90
60868;DHT22;46702;48.370;10.794;2023-04-08T01:11:34;5.10;99.90
60868;DHT22;46702;48.370;10.794;2023-04-08T01:14:05;5.10;99.90
60868;DHT22;46702;48.370;10.794;2023-04-08T01:16:36;5.00;99.90
60868;DHT22;46702;48.370;10.794;2023-04-08T01:19:04;5.00;99.90
60868;DHT22;46702;48.370;10.794;2023-04-08T01:21:32;5.00;99.90
60868;DHT22;46702;48.370;10.794;2023-04-08T01:24:10;5.00;99.90
60868;DHT22;46702;48.370;10.794;2023-04-08T01:26:36;4.90;99.90
60868;DHT22;46702;48.370;10.794;2023-04-08T01:29:02;4.90;99.90
60868;DHT22;46702;48.370;10.794;2023-04-08T01:31:29;4.80;99.90
60868;DHT22;46702;48.370;10.794;2023-04-08T01:33:56;4.90;99.90
60868;DHT22;46702;48.370;10.794;2023-04-08T01:36:25;4.80;99.90
60868;DHT22;46702;48.370;10.794;2023-04-08T01:38:50;4.90;99.90
60868;DHT22;46702;48.370;10.794;2023-04-08T01:41:17;4.80;99.90
60868;DHT22;46702;48.370;10.794;2023-04-08T01:43:44;4.70;99.90
60868;DHT22;46702;48.370;10.794;2023-04-08T01:46:11;4.70;99.90
60868;DHT22;46702;48.370;10.794;2023-04-08T01:48:39;4.70;99.90
60868;DHT22;46702;48.370;10.794;2023-04-08T01:51:05;4.70;99.90
60868;DHT22;46702;48.370;10.794;2023-04-08T01:53:32;4.60;99.90
60868;DHT22;46702;48.370;10.794;2023-04-08T01:56:06;4.70;99.90
60868;DHT22;46702;48.370;10.794;2023-04-08T01:58:37;4.70;99.90
60868;DHT22;46702;48.370;10.794;2023-04-08T02:01:05;4.70;99.90
60868;DHT22;46702;48.370;10.794;2023-04-08T02:03:35;4.60;99.90
60868;DHT22;46702;48.370;10.794;2023-04-08T02:06:01;4.60;99.90
60868;DHT22;46702;48.370;10.794;2023-04-08T02:08:26;4.60;99.90
60868;DHT22;46702;48.370;10.794;2023-04-08T02:10:52;4.60;99.90
60868;DHT22;46702;48.370;10.794;2023-04-08T02:13:17;4.60;99.90
60868;DHT22;46702;48.370;10.794;2023-04-08T02:15:49;4.50;99.90
60868;DHT22;46702;48.370;10.794;2023-04-08T02:18:24;4.50;99.90
60868;DHT22;46702;48.370;10.794;2023-04-08T02:20:56;4.40;99.90
60868;DHT22;46702;48.370;10.794;2023-04-08T02:23:24;4.40;99.90
60868;DHT22;46702;48.370;10.794;2023-04-08T02:25:54;4.40;99.90
60868;DHT22;46702;48.370;10.794;2023-04-08T02:28:21;4.30;99.90
60868;DHT22;46702;48.370;10.794;2023-04-08T02:30:49;4.40;99.90
60868;DHT22;46702;48.370;10.794;2023-04-08T02:33:18;4.30;99.90
60868;DHT22;46702;48.370;10.794;2023-04-08T02:35:45;4.30;99.90
60868;DHT22;46702;48.370;10.794;2023-04-08T02:38:11;4.30;99.90
60868;DHT22;46702;48.370;10.794;2023-04-08T02:40:37;4.30;99.90
60868;DHT22;46702;48.370;10.794;2023-04-08T02:43:03;4.20;99.90
60868;DHT22;46702;48.370;10.794;2023-04-08T02:45:31;4.20;99.90
60868;DHT22;46702;48.370;10.794;2023-04-08T02:47:59;4.10;99.90
60868;DHT22;46702;48.370;10.794;2023-04-08T02:50:25;4.10;99.90
60868;DHT22;46702;48.370;10.794;2023-04-08T02:52:50;4.00;99.90
60868;DHT22;46702;48.370;10.794;2023-04-08T02:55:16;4.00;99.90
60868;DHT22;46702;48.370;10.794;2023-04-08T02:57:42;3.90;99.90
60868;DHT22;46702;48.370;10.794;2023-04-08T03:00:08;3.80;99.90
60868;DHT22;46702;48.370;10.794;2023-04-08T03:02:34;3.80;99.90
60868;DHT22;46702;48.370;10.794;2023-04-08T03:05:00;3.70;99.90
60868;DHT22;46702;48.370;10.794;2023-04-08T03:07:25;3.70;99.90
60868;DHT22;46702;48.370;10.794;2023-04-08T03:09:52;3.70;99.90
60868;DHT22;46702;48.370;10.794;2023-04-08T03:12:20;3.60;99.90
60868;DHT22;46702;48.370;10.794;2023-04-08T03:14:45;3.60;99.90
60868;DHT22;46702;48.370;10.794;2023-04-08T03:17:11;3.50;99.90
60868;DHT22;46702;48.370;10.794;2023-04-08T03:19:36;3.60;99.90
60868;DHT22;46702;48.370;10.794;2023-04-08T03:22:02;3.50;99.90
60868;DHT22;46702;48.370;10.794;2023-04-08T03:24:28;3.50;99.90
60868;DHT22;46702;48.370;10.794;2023-04-08T03:26:53;3.50;99.90
60868;DHT22;46702;48.370;10.794;2023-04-08T03:29:19;3.40;99.90
60868;DHT22;46702;48.370;10.794;2023-04-08T03:31:44;3.40;99.90
60868;DHT22;46702;48.370;10.794;2023-04-08T03:34:10;3.40;99.90
60868;DHT22;46702;48.370;10.794;2023-04-08T03:36:36;3.50;99.90
60868;DHT22;46702;48.370;10.794;2023-04-08T03:39:01;3.50;99.90
60868;DHT22;46702;48.370;10.794;2023-04-08T03:41:28;3.50;99.90
60868;DHT22;46702;48.370;10.794;2023-04-08T03:43:53;3.40;99.90
60868;DHT22;46702;48.370;10.794;2023-04-08T03:46:19;3.30;99.90
60868;DHT22;46702;48.370;10.794;2023-04-08T03:48:45;3.30;99.90
60868;DHT22;46702;48.370;10.794;2023-04-08T03:51:10;3.30;99.90
60868;DHT22;46702;48.370;10.794;2023-04-08T03:53:36;3.20;99.90
60868;DHT22;46702;48.370;10.794;2023-04-08T03:56:01;3.30;99.90
60868;DHT22;46702;48.370;10.794;2023-04-08T03:58:28;3.40;99.90
60868;DHT22;46702;48.370;10.794;2023-04-08T04:00:54;3.30;99.90
60868;DHT22;46702;48.370;10.794;2023-04-08T04:03:20;3.40;99.90
60868;DHT22;46702;48.370;10.794;2023-04-08T04:05:45;3.50;99.90
60868;DHT22;46702;48.370;10.794;2023-04-08T04:08:11;3.50;99.90
60868;DHT22;46702;48.370;10.794;2023-04-08T04:10:37;3.50;99.90
60868;DHT22;46702;48.370;10.794;2023-04-08T04:13:02;3.40;99.90
60868;DHT22;46702;48.370;10.794;2023-04-08T04:15:28;3.40;99.90
60868;DHT22;46702;48.370;10.794;2023-04-08T04:17:53;3.40;99.90
60868;DHT22;46702;48.370;10.794;2023-04-08T04:20:19;3.30;99.90
60868;DHT22;46702;48.370;10.794;2023-04-08T04:22:46;3.30;99.90
60868;DHT22;46702;48.370;10.794;2023-04-08T04:25:12;3.30;99.90
60868;DHT22;46702;48.370;10.794;2023-04-08T04:27:37;3.30;99.90
60868;DHT22;46702;48.370;10.794;2023-04-08T04:30:03;3.40;99.90
60868;DHT22;46702;48.370;10.794;2023-04-08T04:32:30;3.50;99.90
60868;DHT22;46702;48.370;10.794;2023-04-08T04:34:55;3.50;99.90
60868;DHT22;46702;48.370;10.794;2023-04-08T04:37:21;3.50;99.90
60868;DHT22;46702;48.370;10.794;2023-04-08T04:39:46;3.50;99.90
60868;DHT22;46702;48.370;10.794;2023-04-08T04:42:12;3.60;99.90
60868;DHT22;46702;48.370;10.794;2023-04-08T04:44:38;3.50;99.90
60868;DHT22;46702;48.370;10.794;2023-04-08T04:47:03;3.50;99.90
60868;DHT22;46702;48.370;10.794;2023-04-08T04:49:30;3.40;99.90
60868;DHT22;46702;48.370;10.794;2023-04-08T04:51:55;3.50;99.90
60868;DHT22;46702;48.370;10.794;2023-04-08T04:54:21;3.50;99.90
60868;DHT22;46702;48.370;10.794;2023-04-08T04:56:46;3.60;99.90
60868;DHT22;46702;48.370;10.794;2023-04-08T04:59:12;3.70;99.90
60868;DHT22;46702;48.370;10.794;2023-04-08T05:01:37;3.70;99.90
60868;DHT22;46702;48.370;10.794;2023-04-08T05:04:05;3.70;99.90
60868;DHT22;46702;48.370;10.794;2023-04-08T05:06:31;3.70;99.90
60868;DHT22;46702;48.370;10.794;2023-04-08T05:08:57;3.80;99.90
60868;DHT22;46702;48.370;10.794;2023-04-08T05:11:22;3.80;99.90
60868;DHT22;46702;48.370;10.794;2023-04-08T05:13:48;3.80;99.90
60868;DHT22;46702;48.370;10.794;2023-04-08T05:16:14;3.80;99.90
60868;DHT22;46702;48.370;10.794;2023-04-08T05:18:40;3.80;99.90
60868;DHT22;46702;48.370;10.794;2023-04-08T05:21:06;3.70;99.90
60868;DHT22;46702;48.370;10.794;2023-04-08T05:23:31;3.70;99.90
60868;DHT22;46702;48.370;10.794;2023-04-08T05:25:58;3.70;99.90
60868;DHT22;46702;48.370;10.794;2023-04-08T05:28:24;3.80;99.90
60868;DHT22;46702;48.370;10.794;2023-04-08T05:30:50;3.80;99.90
60868;DHT22;46702;48.370;10.794;2023-04-08T05:33:17;3.90;99.90
60868;DHT22;46702;48.370;10.794;2023-04-08T05:35:43;3.90;99.90
60868;DHT22;46702;48.370;10.794;2023-04-08T05:38:09;3.90;99.90
60868;DHT22;46702;48.370;10.794;2023-04-08T05:40:34;4.00;99.90
60868;DHT22;46702;48.370;10.794;2023-04-08T05:43:00;4.10;99.90
60868;DHT22;46702;48.370;10.794;2023-04-08T05:45:27;4.10;99.90
60868;DHT22;46702;48.370;10.794;2023-04-08T05:47:53;4.20;99.90
60868;DHT22;46702;48.370;10.794;2023-04-08T05:50:18;4.30;99.90
60868;DHT22;46702;48.370;10.794;2023-04-08T05:52:45;4.30;99.90
60868;DHT22;46702;48.370;10.794;2023-04-08T05:55:12;4.30;99.90
60868;DHT22;46702;48.370;10.794;2023-04-08T05:57:37;4.40;99.90
60868;DHT22;46702;48.370;10.794;2023-04-08T06:00:07;4.40;99.90
60868;DHT22;46702;48.370;10.794;2023-04-08T06:02:34;4.50;99.90
60868;DHT22;46702;48.370;10.794;2023-04-08T06:05:01;4.60;99.90
60868;DHT22;46702;48.370;10.794;2023-04-08T06:07:27;4.60;99.90
60868;DHT22;46702;48.370;10.794;2023-04-08T06:09:52;4.70;99.90
60868;DHT22;46702;48.370;10.794;2023-04-08T06:12:18;4.70;99.90
60868;DHT22;46702;48.370;10.794;2023-04-08T06:14:43;4.80;99.90
60868;DHT22;46702;48.370;10.794;2023-04-08T06:17:12;4.90;99.90
60868;DHT22;46702;48.370;10.794;2023-04-08T06:19:37;5.00;99.90
60868;DHT22;46702;48.370;10.794;2023-04-08T06:22:03;5.10;99.90
60868;DHT22;46702;48.370;10.794;2023-04-08T06:24:28;5.20;99.90
60868;DHT22;46702;48.370;10.794;2023-04-08T06:26:55;5.20;99.90
60868;DHT22;46702;48.370;10.794;2023-04-08T06:29:23;5.40;99.90
60868;DHT22;46702;48.370;10.794;2023-04-08T06:31:49;5.40;99.90
60868;DHT22;46702;48.370;10.794;2023-04-08T06:34:15;5.50;99.90
60868;DHT22;46702;48.370;10.794;2023-04-08T06:36:41;5.60;99.90
60868;DHT22;46702;48.370;10.794;2023-04-08T06:39:06;5.70;99.90
60868;DHT22;46702;48.370;10.794;2023-04-08T06:41:32;5.70;99.90
60868;DHT22;46702;48.370;10.794;2023-04-08T06:43:58;5.80;99.90
60868;DHT22;46702;48.370;10.794;2023-04-08T06:46:24;5.80;99.90
60868;DHT22;46702;48.370;10.794;2023-04-08T06:48:50;5.90;99.90
60868;DHT22;46702;48.370;10.794;2023-04-08T06:51:15;5.90;99.90
60868;DHT22;46702;48.370;10.794;2023-04-08T06:53:41;6.00;99.90
60868;DHT22;46702;48.370;10.794;2023-04-08T06:56:06;6.10;99.90
60868;DHT22;46702;48.370;10.794;2023-04-08T06:58:32;6.20;99.90
60868;DHT22;46702;48.370;10.794;2023-04-08T07:00:58;6.20;99.90
60868;DHT22;46702;48.370;10.794;2023-04-08T07:03:25;6.20;99.90
60868;DHT22;46702;48.370;10.794;2023-04-08T07:05:51;6.30;99.90
60868;DHT22;46702;48.370;10.794;2023-04-08T07:08:17;6.30;99.90
60868;DHT22;46702;48.370;10.794;2023-04-08T07:10:43;6.40;99.90
60868;DHT22;46702;48.370;10.794;2023-04-08T07:13:09;6.40;99.90
60868;DHT22;46702;48.370;10.794;2023-04-08T07:15:35;6.50;99.90
60868;DHT22;46702;48.370;10.794;2023-04-08T07:18:01;6.60;99.90
60868;DHT22;46702;48.370;10.794;2023-04-08T07:20:27;6.70;99.90
60868;DHT22;46702;48.370;10.794;2023-04-08T07:22:53;6.70;99.90
60868;DHT22;46702;48.370;10.794;2023-04-08T07:25:18;6.70;99.90
60868;DHT22;46702;48.370;10.794;2023-04-08T07:27:44;6.80;99.90
60868;DHT22;46702;48.370;10.794;2023-04-08T07:30:10;6.80;99.90
60868;DHT22;46702;48.370;10.794;2023-04-08T07:32:36;6.90;99.90
60868;DHT22;46702;48.370;10.794;2023-04-08T07:35:02;6.90;99.90
60868;DHT22;46702;48.370;10.794;2023-04-08T07:37:28;7.00;99.90
60868;DHT22;46702;48.370;10.794;2023-04-08T07:39:53;7.00;99.90
60868;DHT22;46702;48.370;10.794;2023-04-08T07:42:20;7.10;99.90
60868;DHT22;46702;48.370;10.794;2023-04-08T07:44:46;7.20;99.90
60868;DHT22;46702;48.370;10.794;2023-04-08T07:47:12;7.20;99.90
60868;DHT22;46702;48.370;10.794;2023-04-08T07:49:37;7.30;99.90
60868;DHT22;46702;48.370;10.794;2023-04-08T07:52:04;7.40;99.90
60868;DHT22;46702;48.370;10.794;2023-04-08T07:54:30;7.40;99.90
60868;DHT22;46702;48.370;10.794;2023-04-08T07:56:57;7.40;99.90
60868;DHT22;46702;48.370;10.794;2023-04-08T07:59:24;7.50;99.90
60868;DHT22;46702;48.370;10.794;2023-04-08T08:01:50;7.50;99.90
60868;DHT22;46702;48.370;10.794;2023-04-08T08:04:16;7.60;99.90
60868;DHT22;46702;48.370;10.794;2023-04-08T08:06:42;7.60;99.90
60868;DHT22;46702;48.370;10.794;2023-04-08T08:09:08;7.60;99.90
60868;DHT22;46702;48.370;10.794;2023-04-08T08:11:33;7.60;99.90
60868;DHT22;46702;48.370;10.794;2023-04-08T08:13:59;7.70;99.90
60868;DHT22;46702;48.370;10.794;2023-04-08T08:16:28;7.80;99.90
60868;DHT22;46702;48.370;10.794;2023-04-08T08:18:54;7.80;99.90
60868;DHT22;46702;48.370;10.794;2023-04-08T08:21:20;7.90;99.90
60868;DHT22;46702;48.370;10.794;2023-04-08T08:23:46;7.80;99.90
60868;DHT22;46702;48.370;10.794;2023-04-08T08:26:11;7.80;99.90
60868;DHT22;46702;48.370;10.794;2023-04-08T08:28:39;7.70;99.90
60868;DHT22;46702;48.370;10.794;2023-04-08T08:31:05;7.70;99.90
60868;DHT22;46702;48.370;10.794;2023-04-08T08:33:31;7.70;99.90
60868;DHT22;46702;48.370;10.794;2023-04-08T08:35:57;7.70;99.90
60868;DHT22;46702;48.370;10.794;2023-04-08T08:38:23;7.60;99.90
60868;DHT22;46702;48.370;10.794;2023-04-08T08:40:56;7.60;99.90
60868;DHT22;46702;48.370;10.794;2023-04-08T08:43:26;7.70;99.90
60868;DHT22;46702;48.370;10.794;2023-04-08T08:45:52;7.70;99.90
60868;DHT22;46702;48.370;10.794;2023-04-08T08:48:18;7.60;99.90
60868;DHT22;46702;48.370;10.794;2023-04-08T08:50:44;7.40;99.90
60868;DHT22;46702;48.370;10.794;2023-04-08T08:53:10;7.20;99.90
60868;DHT22;46702;48.370;10.794;2023-04-08T08:55:35;6.90;99.90
60868;DHT22;46702;48.370;10.794;2023-04-08T08:58:04;6.80;99.90
60868;DHT22;46702;48.370;10.794;2023-04-08T09:00:40;6.70;99.90
60868;DHT22;46702;48.370;10.794;2023-04-08T09:05:48;6.60;99.90
60868;DHT22;46702;48.370;10.794;2023-04-08T09:08:35;6.70;99.90
60868;DHT22;46702;48.370;10.794;2023-04-08T09:13:36;6.80;99.90
60868;DHT22;46702;48.370;10.794;2023-04-08T09:16:03;6.80;99.90
60868;DHT22;46702;48.370;10.794;2023-04-08T09:18:30;6.90;99.90
60868;DHT22;46702;48.370;10.794;2023-04-08T09:20:59;7.00;99.90
60868;DHT22;46702;48.370;10.794;2023-04-08T09:23:37;7.10;99.90
60868;DHT22;46702;48.370;10.794;2023-04-08T09:26:13;7.10;99.90
60868;DHT22;46702;48.370;10.794;2023-04-08T09:28:40;7.20;99.90
60868;DHT22;46702;48.370;10.794;2023-04-08T09:31:22;7.20;99.90
60868;DHT22;46702;48.370;10.794;2023-04-08T09:33:49;7.20;99.90
60868;DHT22;46702;48.370;10.794;2023-04-08T09:36:15;7.20;99.90
60868;DHT22;46702;48.370;10.794;2023-04-08T09:38:42;7.20;99.90
60868;DHT22;46702;48.370;10.794;2023-04-08T09:41:08;7.10;99.90
60868;DHT22;46702;48.370;10.794;2023-04-08T09:43:42;7.10;99.90
60868;DHT22;46702;48.370;10.794;2023-04-08T09:46:14;7.00;99.90
60868;DHT22;46702;48.370;10.794;2023-04-08T09:48:48;7.00;99.90
60868;DHT22;46702;48.370;10.794;2023-04-08T09:51:15;7.00;99.90
60868;DHT22;46702;48.370;10.794;2023-04-08T09:53:46;7.00;99.90
60868;DHT22;46702;48.370;10.794;2023-04-08T09:56:13;7.00;99.90
60868;DHT22;46702;48.370;10.794;2023-04-08T09:58:48;7.10;99.90
60868;DHT22;46702;48.370;10.794;2023-04-08T10:01:21;7.20;99.90
60868;DHT22;46702;48.370;10.794;2023-04-08T10:03:51;7.30;99.90
60868;DHT22;46702;48.370;10.794;2023-04-08T10:06:18;7.40;99.90
60868;DHT22;46702;48.370;10.794;2023-04-08T10:08:46;7.40;99.90
60868;DHT22;46702;48.370;10.794;2023-04-08T10:11:14;7.50;99.90
60868;DHT22;46702;48.370;10.794;2023-04-08T10:13:40;7.50;99.90
60868;DHT22;46702;48.370;10.794;2023-04-08T10:16:16;7.60;99.90
60868;DHT22;46702;48.370;10.794;2023-04-08T10:18:42;7.50;99.90
60868;DHT22;46702;48.370;10.794;2023-04-08T10:21:31;7.50;99.90
60868;DHT22;46702;48.370;10.794;2023-04-08T10:23:57;7.50;99.90
60868;DHT22;46702;48.370;10.794;2023-04-08T10:26:32;7.60;99.90
60868;DHT22;46702;48.370;10.794;2023-04-08T10:31:43;7.80;99.90
60868;DHT22;46702;48.370;10.794;2023-04-08T10:34:35;7.90;99.90
60868;DHT22;46702;48.370;10.794;2023-04-08T10:37:15;8.00;99.90
60868;DHT22;46702;48.370;10.794;2023-04-08T10:39:48;8.10;99.90
60868;DHT22;46702;48.370;10.794;2023-04-08T10:42:13;8.20;99.90
60868;DHT22;46702;48.370;10.794;2023-04-08T10:44:43;8.10;99.90
60868;DHT22;46702;48.370;10.794;2023-04-08T10:47:10;8.20;99.90
60868;DHT22;46702;48.370;10.794;2023-04-08T10:49:37;8.40;99.90
60868;DHT22;46702;48.370;10.794;2023-04-08T10:52:06;8.60;99.90
60868;DHT22;46702;48.370;10.794;2023-04-08T10:54:32;8.40;99.90
60868;DHT22;46702;48.370;10.794;2023-04-08T10:56:58;8.20;99.90
60868;DHT22;46702;48.370;10.794;2023-04-08T10:59:30;8.20;99.90
60868;DHT22;46702;48.370;10.794;2023-04-08T11:01:57;8.30;99.90
60868;DHT22;46702;48.370;10.794;2023-04-08T11:04:24;8.30;99.90
60868;DHT22;46702;48.370;10.794;2023-04-08T11:06:50;8.40;99.90
60868;DHT22;46702;48.370;10.794;2023-04-08T11:09:16;8.40;99.90
60868;DHT22;46702;48.370;10.794;2023-04-08T11:11:43;8.50;99.90
60868;DHT22;46702;48.370;10.794;2023-04-08T11:14:09;8.60;99.90
60868;DHT22;46702;48.370;10.794;2023-04-08T11:16:37;8.70;99.90
60868;DHT22;46702;48.370;10.794;2023-04-08T11:19:03;8.80;99.90
60868;DHT22;46702;48.370;10.794;2023-04-08T11:21:35;8.80;99.90
60868;DHT22;46702;48.370;10.794;2023-04-08T11:24:04;8.60;99.90
60868;DHT22;46702;48.370;10.794;2023-04-08T11:26:30;8.40;99.90
60868;DHT22;46702;48.370;10.794;2023-04-08T11:28:56;8.20;99.90
60868;DHT22;46702;48.370;10.794;2023-04-08T11:31:23;8.10;99.90
60868;DHT22;46702;48.370;10.794;2023-04-08T11:33:52;8.20;99.90
60868;DHT22;46702;48.370;10.794;2023-04-08T11:36:18;8.10;99.90
60868;DHT22;46702;48.370;10.794;2023-04-08T11:38:43;8.20;99.90
60868;DHT22;46702;48.370;10.794;2023-04-08T11:41:09;8.10;99.90
60868;DHT22;46702;48.370;10.794;2023-04-08T11:43:38;8.00;99.90
60868;DHT22;46702;48.370;10.794;2023-04-08T11:46:12;8.10;99.90
60868;DHT22;46702;48.370;10.794;2023-04-08T11:48:38;8.10;99.90
60868;DHT22;46702;48.370;10.794;2023-04-08T11:51:07;8.30;99.90
60868;DHT22;46702;48.370;10.794;2023-04-08T11:53:34;8.10;99.90
60868;DHT22;46702;48.370;10.794;2023-04-08T11:56:19;8.00;99.90
60868;DHT22;46702;48.370;10.794;2023-04-08T11:58:46;8.00;99.90
60868;DHT22;46702;48.370;10.794;2023-04-08T12:01:12;8.00;99.90
60868;DHT22;46702;48.370;10.794;2023-04-08T12:03:38;7.90;99.90
60868;DHT22;46702;48.370;10.794;2023-04-08T12:06:04;7.80;99.90
60868;DHT22;46702;48.370;10.794;2023-04-08T12:08:33;7.80;99.90
60868;DHT22;46702;48.370;10.794;2023-04-08T12:10:59;7.60;99.90
60868;DHT22;46702;48.370;10.794;2023-04-08T12:13:25;7.60;99.90
60868;DHT22;46702;48.370;10.794;2023-04-08T12:15:51;7.60;99.90
60868;DHT22;46702;48.370;10.794;2023-04-08T12:18:17;7.70;99.90
60868;DHT22;46702;48.370;10.794;2023-04-08T12:20:43;7.70;99.90
60868;DHT22;46702;48.370;10.794;2023-04-08T12:23:08;7.70;99.90
60868;DHT22;46702;48.370;10.794;2023-04-08T12:25:34;7.60;99.90
60868;DHT22;46702;48.370;10.794;2023-04-08T12:27:59;7.60;99.90
60868;DHT22;46702;48.370;10.794;2023-04-08T12:30:25;7.50;99.90
60868;DHT22;46702;48.370;10.794;2023-04-08T12:32:51;7.50;99.90
60868;DHT22;46702;48.370;10.794;2023-04-08T12:35:19;7.40;99.90
60868;DHT22;46702;48.370;10.794;2023-04-08T12:37:45;7.30;99.90
60868;DHT22;46702;48.370;10.794;2023-04-08T12:40:11;7.30;99.90
60868;DHT22;46702;48.370;10.794;2023-04-08T12:42:36;7.30;99.90
60868;DHT22;46702;48.370;10.794;2023-04-08T12:45:02;7.30;99.90
60868;DHT22;46702;48.370;10.794;2023-04-08T12:47:28;7.20;99.90
60868;DHT22;46702;48.370;10.794;2023-04-08T12:49:53;7.20;99.90
60868;DHT22;46702;48.370;10.794;2023-04-08T12:52:19;7.10;99.90
60868;DHT22;46702;48.370;10.794;2023-04-08T12:54:45;7.00;99.90
60868;DHT22;46702;48.370;10.794;2023-04-08T12:57:11;7.10;99.90
60868;DHT22;46702;48.370;10.794;2023-04-08T12:59:36;7.00;99.90
60868;DHT22;46702;48.370;10.794;2023-04-08T13:02:04;6.90;99.90
60868;DHT22;46702;48.370;10.794;2023-04-08T13:04:29;7.00;99.90
60868;DHT22;46702;48.370;10.794;2023-04-08T13:06:55;7.00;99.90
60868;DHT22;46702;48.370;10.794;2023-04-08T13:09:21;7.10;99.90
60868;DHT22;46702;48.370;10.794;2023-04-08T13:11:47;7.20;99.90
60868;DHT22;46702;48.370;10.794;2023-04-08T13:14:13;7.30;99.90
60868;DHT22;46702;48.370;10.794;2023-04-08T13:16:38;7.10;99.90
60868;DHT22;46702;48.370;10.794;2023-04-08T13:19:04;7.10;99.90
60868;DHT22;46702;48.370;10.794;2023-04-08T13:21:29;7.00;99.90
60868;DHT22;46702;48.370;10.794;2023-04-08T13:23:55;7.00;99.90
60868;DHT22;46702;48.370;10.794;2023-04-08T13:26:21;7.00;99.90
60868;DHT22;46702;48.370;10.794;2023-04-08T13:28:47;6.90;99.90
60868;DHT22;46702;48.370;10.794;2023-04-08T13:31:13;6.90;99.90
60868;DHT22;46702;48.370;10.794;2023-04-08T13:33:38;6.70;99.90
60868;DHT22;46702;48.370;10.794;2023-04-08T13:36:04;6.50;99.90
60868;DHT22;46702;48.370;10.794;2023-04-08T13:38:30;6.30;99.90
60868;DHT22;46702;48.370;10.794;2023-04-08T13:40:55;6.20;99.90
60868;DHT22;46702;48.370;10.794;2023-04-08T13:43:22;6.20;99.90
60868;DHT22;46702;48.370;10.794;2023-04-08T13:45:48;6.20;99.90
60868;DHT22;46702;48.370;10.794;2023-04-08T13:48:13;6.20;99.90
60868;DHT22;46702;48.370;10.794;2023-04-08T13:50:39;6.30;99.90
60868;DHT22;46702;48.370;10.794;2023-04-08T13:53:06;6.30;99.90
60868;DHT22;46702;48.370;10.794;2023-04-08T13:55:32;6.30;99.90
60868;DHT22;46702;48.370;10.794;2023-04-08T13:57:58;6.30;99.90
60868;DHT22;46702;48.370;10.794;2023-04-08T14:00:24;6.30;99.90
60868;DHT22;46702;48.370;10.794;2023-04-08T14:02:50;6.20;99.90
60868;DHT22;46702;48.370;10.794;2023-04-08T14:05:16;6.30;99.90
60868;DHT22;46702;48.370;10.794;2023-04-08T14:07:41;6.30;99.90
60868;DHT22;46702;48.370;10.794;2023-04-08T14:10:07;6.30;99.90
60868;DHT22;46702;48.370;10.794;2023-04-08T14:12:33;6.20;99.90
60868;DHT22;46702;48.370;10.794;2023-04-08T14:14:59;6.30;99.90
60868;DHT22;46702;48.370;10.794;2023-04-08T14:17:24;6.20;99.90
60868;DHT22;46702;48.370;10.794;2023-04-08T14:19:50;6.30;99.90
60868;DHT22;46702;48.370;10.794;2023-04-08T14:22:16;6.30;99.90
60868;DHT22;46702;48.370;10.794;2023-04-08T14:24:43;6.30;99.90
60868;DHT22;46702;48.370;10.794;2023-04-08T14:27:08;6.30;99.90
60868;DHT22;46702;48.370;10.794;2023-04-08T14:29:34;6.30;99.90
60868;DHT22;46702;48.370;10.794;2023-04-08T14:32:00;6.30;99.90
60868;DHT22;46702;48.370;10.794;2023-04-08T14:34:26;6.40;99.90
60868;DHT22;46702;48.370;10.794;2023-04-08T14:36:51;6.40;99.90
60868;DHT22;46702;48.370;10.794;2023-04-08T14:39:17;6.40;99.90
60868;DHT22;46702;48.370;10.794;2023-04-08T14:41:43;6.40;99.90
60868;DHT22;46702;48.370;10.794;2023-04-08T14:44:08;6.20;99.90
60868;DHT22;46702;48.370;10.794;2023-04-08T14:46:34;6.20;99.90
60868;DHT22;46702;48.370;10.794;2023-04-08T14:49:00;6.20;99.90
60868;DHT22;46702;48.370;10.794;2023-04-08T14:51:25;6.20;99.90
60868;DHT22;46702;48.370;10.794;2023-04-08T14:53:51;6.20;99.90
60868;DHT22;46702;48.370;10.794;2023-04-08T14:56:16;6.20;99.90
60868;DHT22;46702;48.370;10.794;2023-04-08T14:58:42;6.20;99.90
60868;DHT22;46702;48.370;10.794;2023-04-08T15:01:07;6.30;99.90
60868;DHT22;46702;48.370;10.794;2023-04-08T15:03:33;6.30;99.90
60868;DHT22;46702;48.370;10.794;2023-04-08T15:05:59;6.30;99.90
60868;DHT22;46702;48.370;10.794;2023-04-08T15:08:25;6.20;99.90
60868;DHT22;46702;48.370;10.794;2023-04-08T15:10:51;6.20;99.90
60868;DHT22;46702;48.370;10.794;2023-04-08T15:13:17;6.20;99.90
60868;DHT22;46702;48.370;10.794;2023-04-08T15:15:42;6.20;99.90
60868;DHT22;46702;48.370;10.794;2023-04-08T15:18:08;6.20;99.90
60868;DHT22;46702;48.370;10.794;2023-04-08T15:20:34;6.20;99.90
60868;DHT22;46702;48.370;10.794;2023-04-08T15:22:59;6.20;99.90
60868;DHT22;46702;48.370;10.794;2023-04-08T15:25:25;6.20;99.90
60868;DHT22;46702;48.370;10.794;2023-04-08T15:27:51;6.20;99.90
60868;DHT22;46702;48.370;10.794;2023-04-08T15:30:16;6.20;99.90
60868;DHT22;46702;48.370;10.794;2023-04-08T15:32:49;6.20;99.90
60868;DHT22;46702;48.370;10.794;2023-04-08T15:35:14;6.20;99.90